createdAt,value
2022-12-16T00:01:46.322Z,10.00
2022-12-16T00:06:49.579Z,9.68
2022-12-16T00:11:55.520Z,9.55
2022-12-16T00:16:59.010Z,9.93
2022-12-16T00:22:02.297Z,10.55
2022-12-16T00:27:05.641Z,9.90
2022-12-16T00:32:09.174Z,11.25
2022-12-16T00:37:12.738Z,12.00
2022-12-16T00:42:16.108Z,10.73
2022-12-16T00:47:19.594Z,10.77
2022-12-16T00:52:23.113Z,11.77
2022-12-16T00:57:26.522Z,11.23
2022-12-16T01:02:31.922Z,10.95
2022-12-16T01:07:35.591Z,11.48
2022-12-16T01:12:39.460Z,13.23
2022-12-16T01:17:42.995Z,11.40
2022-12-16T01:22:46.916Z,10.38
2022-12-16T01:27:50.213Z,10.48
2022-12-16T01:32:53.917Z,9.73
2022-12-16T01:37:57.419Z,7.97
2022-12-16T01:43:02.015Z,5.63
2022-12-16T01:48:20.609Z,5.80
2022-12-16T01:53:24.422Z,4.43
2022-12-16T01:58:32.511Z,3.55
2022-12-16T02:03:37.711Z,4.80
2022-12-16T02:08:41.308Z,8.93
2022-12-16T02:14:06.063Z,9.77
2022-12-16T02:19:15.903Z,10.68
2022-12-16T02:25:01.959Z,9.00
2022-12-16T02:30:27.826Z,9.80
2022-12-16T02:35:54.994Z,10.93
2022-12-16T02:41:11.741Z,11.02
2022-12-16T02:46:15.751Z,10.48
2022-12-16T02:51:19.399Z,10.40
2022-12-16T02:56:34.654Z,12.13
2022-12-16T03:02:00.878Z,16.00
2022-12-16T03:07:07.394Z,16.40
2022-12-16T03:12:15.992Z,17.98
2022-12-16T03:17:21.675Z,17.98
2022-12-16T03:22:29.014Z,18.83
2022-12-16T03:27:53.801Z,19.90
2022-12-16T03:33:06.991Z,19.52
2022-12-16T03:38:13.893Z,18.48
2022-12-16T03:43:18.073Z,18.75
2022-12-16T03:48:26.927Z,18.88
2022-12-16T03:53:30.547Z,17.60
2022-12-16T03:58:34.246Z,16.95
2022-12-16T04:03:38.421Z,16.85
2022-12-16T04:08:41.763Z,16.67
2022-12-16T04:13:45.146Z,17.80
2022-12-16T04:18:48.876Z,18.10
2022-12-16T04:23:56.812Z,18.85
2022-12-16T04:29:00.127Z,18.80
2022-12-16T04:34:03.533Z,20.00
2022-12-16T04:39:07.439Z,20.45
2022-12-16T04:44:11.162Z,23.42
2022-12-16T04:49:14.677Z,25.20
2022-12-16T04:54:18.176Z,27.70
2022-12-16T04:59:21.986Z,26.70
2022-12-16T05:04:25.487Z,28.63
2022-12-16T05:09:28.843Z,26.55
2022-12-16T05:14:32.494Z,23.80
2022-12-16T05:19:36.110Z,23.73
2022-12-16T05:24:39.637Z,21.35
2022-12-16T05:29:43.081Z,20.38
2022-12-16T05:34:46.510Z,19.58
2022-12-16T05:39:51.270Z,20.30
2022-12-16T05:44:57.596Z,19.40
2022-12-16T05:50:04.284Z,21.52
2022-12-16T05:55:08.521Z,20.17
2022-12-16T06:00:12.819Z,22.02
2022-12-16T06:05:17.064Z,24.90
2022-12-16T06:10:20.590Z,27.23
2022-12-16T06:15:24.551Z,27.52
2022-12-16T06:20:28.066Z,26.60
2022-12-16T06:25:31.576Z,26.48
2022-12-16T06:30:34.916Z,24.95
2022-12-16T06:35:38.885Z,24.95
2022-12-16T06:40:42.377Z,23.88
2022-12-16T06:45:45.901Z,24.23
2022-12-16T06:50:52.436Z,24.83
2022-12-16T06:55:59.662Z,26.40
2022-12-16T07:01:03.737Z,26.23
2022-12-16T07:06:07.753Z,25.35
2022-12-16T07:11:16.611Z,23.42
2022-12-16T07:16:20.857Z,25.40
2022-12-16T07:21:24.392Z,23.23
2022-12-16T07:26:28.204Z,24.85
2022-12-16T07:31:31.747Z,24.38
2022-12-16T07:36:35.099Z,25.33
2022-12-16T07:41:38.601Z,23.25
2022-12-16T07:46:42.133Z,25.13
2022-12-16T07:51:45.615Z,25.08
2022-12-16T07:56:49.281Z,23.73
2022-12-16T08:01:52.903Z,23.50
2022-12-16T08:06:58.687Z,23.67
2022-12-16T08:12:03.066Z,24.17
2022-12-16T08:17:07.697Z,22.33
2022-12-16T08:22:11.995Z,23.95
2022-12-16T08:27:16.700Z,23.13
2022-12-16T08:32:20.051Z,23.13
2022-12-16T08:37:23.463Z,21.70
2022-12-16T08:42:27.734Z,21.38
2022-12-16T08:47:31.239Z,21.48
2022-12-16T08:52:34.618Z,21.00
2022-12-16T08:57:38.054Z,22.40
2022-12-16T09:02:41.447Z,21.85
2022-12-16T09:07:45.738Z,21.25
2022-12-16T09:12:49.333Z,21.00
2022-12-16T09:17:56.872Z,18.67
2022-12-16T09:23:05.256Z,17.63
2022-12-16T09:28:11.340Z,18.92
2022-12-16T09:33:14.808Z,19.35
2022-12-16T09:38:18.608Z,20.42
2022-12-16T09:44:00.726Z,17.55
2022-12-16T09:54:23.970Z,18.52
2022-12-16T09:59:49.571Z,17.55
2022-12-16T10:04:53.020Z,14.35
2022-12-16T10:10:18.096Z,15.45
2022-12-16T10:15:49.214Z,14.10
2022-12-16T10:20:55.570Z,15.38
2022-12-16T10:26:07.907Z,14.65
2022-12-16T10:31:17.427Z,16.00
2022-12-16T10:36:24.796Z,17.90
2022-12-16T10:41:35.630Z,18.23
2022-12-16T10:46:44.404Z,18.38
2022-12-16T10:51:47.907Z,18.05
2022-12-16T10:57:03.692Z,18.80
2022-12-16T11:02:16.179Z,18.02
2022-12-16T11:07:34.020Z,16.20
2022-12-16T11:12:37.523Z,17.30
2022-12-16T11:17:41.166Z,17.08
2022-12-16T11:22:44.499Z,17.10
2022-12-16T11:27:48.403Z,15.95
2022-12-16T11:32:57.973Z,15.82
2022-12-16T11:38:04.630Z,17.55
2022-12-16T11:43:17.019Z,17.23
2022-12-16T11:53:46.138Z,16.25
2022-12-16T11:58:58.153Z,16.17
2022-12-16T12:04:05.955Z,18.50
2022-12-16T12:09:19.985Z,31.98
2022-12-16T12:14:48.732Z,31.58
2022-12-16T12:20:21.151Z,32.30
2022-12-16T12:25:49.368Z,30.95
2022-12-16T12:31:04.462Z,30.00
2022-12-16T12:36:17.149Z,23.55
2022-12-16T12:41:29.218Z,17.05
2022-12-16T12:46:36.033Z,14.10
2022-12-16T12:51:50.897Z,11.05
2022-12-16T12:56:58.059Z,9.80
2022-12-16T13:02:06.301Z,8.00
2022-12-16T13:07:10.871Z,6.55
2022-12-16T13:12:14.183Z,5.43
2022-12-16T13:17:25.238Z,6.13
2022-12-16T13:22:36.358Z,6.20
2022-12-16T13:28:05.872Z,6.35
2022-12-16T13:33:32.810Z,6.43
2022-12-16T13:38:37.257Z,7.90
2022-12-16T13:43:58.682Z,10.02
2022-12-16T13:49:34.291Z,10.88
2022-12-16T13:54:50.353Z,10.90
2022-12-16T13:59:55.002Z,9.77
2022-12-16T14:04:59.403Z,10.25
2022-12-16T14:10:04.854Z,10.90
2022-12-16T14:15:26.627Z,9.98
2022-12-16T14:20:54.923Z,10.15
2022-12-16T14:25:59.833Z,10.63
2022-12-16T14:31:14.695Z,9.88
2022-12-16T14:36:19.361Z,9.27
2022-12-16T14:41:25.584Z,9.60
2022-12-16T14:46:33.395Z,10.85
2022-12-16T14:51:46.446Z,10.10
2022-12-16T14:56:50.423Z,9.77
2022-12-16T15:01:58.517Z,10.07
2022-12-16T15:07:05.221Z,10.07
2022-12-16T15:17:23.755Z,11.23
2022-12-16T15:22:28.707Z,10.65
2022-12-16T15:27:39.810Z,11.60
2022-12-16T15:32:53.340Z,10.77
2022-12-16T15:38:03.620Z,12.02
2022-12-16T15:43:21.218Z,11.93
2022-12-16T15:48:31.880Z,12.05
2022-12-16T15:53:39.325Z,11.75
2022-12-16T15:58:42.973Z,12.15
2022-12-16T16:03:52.605Z,11.57
2022-12-16T16:08:56.283Z,12.27
2022-12-16T16:14:06.119Z,13.05
2022-12-16T16:19:21.044Z,11.65
2022-12-16T16:24:24.765Z,11.35
2022-12-16T16:29:28.438Z,11.88
2022-12-16T16:34:32.839Z,11.98
2022-12-16T16:39:36.436Z,10.95
2022-12-16T16:44:40.304Z,11.27
2022-12-16T16:49:47.326Z,11.68
2022-12-16T16:54:50.964Z,11.95
2022-12-16T16:59:54.569Z,11.27
2022-12-16T17:04:58.028Z,13.52
2022-12-16T17:10:01.899Z,11.43
2022-12-16T17:15:16.922Z,11.57
2022-12-16T17:20:20.320Z,10.93
2022-12-16T17:25:24.786Z,11.77
2022-12-16T17:30:28.913Z,11.38
2022-12-16T17:35:32.572Z,13.80
2022-12-16T17:40:35.951Z,14.32
2022-12-16T17:45:39.349Z,13.57
2022-12-16T17:50:42.754Z,13.52
2022-12-16T17:55:46.420Z,14.27
2022-12-16T18:00:49.945Z,14.45
2022-12-16T18:05:58.024Z,14.18
2022-12-16T18:11:01.628Z,14.35
2022-12-16T18:16:05.809Z,15.43
2022-12-16T18:21:13.645Z,15.27
2022-12-16T18:26:18.083Z,15.70
2022-12-16T18:31:21.496Z,14.98
2022-12-16T18:36:28.129Z,16.92
2022-12-16T18:41:31.822Z,15.35
2022-12-16T18:46:35.894Z,13.32
2022-12-16T18:51:39.768Z,13.68
2022-12-16T18:56:43.364Z,12.63
2022-12-16T19:01:47.118Z,11.98
2022-12-16T19:06:51.664Z,12.23
2022-12-16T19:11:55.317Z,12.35
2022-12-16T19:16:58.919Z,12.00
2022-12-16T19:22:02.347Z,12.90
2022-12-16T19:32:32.751Z,14.52
2022-12-16T19:37:36.504Z,15.07
2022-12-16T19:42:40.234Z,15.10
2022-12-16T19:47:44.299Z,14.45
2022-12-16T19:52:50.456Z,13.82
2022-12-16T19:57:55.825Z,13.07
2022-12-16T20:02:59.935Z,14.27
2022-12-16T20:08:05.544Z,13.65
2022-12-16T20:13:16.954Z,12.30
2022-12-16T20:18:23.974Z,11.65
2022-12-16T20:23:27.586Z,12.40
2022-12-16T20:28:31.260Z,11.30
2022-12-16T20:33:36.424Z,10.77
2022-12-16T20:38:40.693Z,10.63
2022-12-16T20:43:44.566Z,9.95
2022-12-16T20:48:48.001Z,10.60
2022-12-16T20:53:53.224Z,9.68
2022-12-16T20:58:58.460Z,10.18
2022-12-16T21:04:02.677Z,9.65
2022-12-16T21:09:08.864Z,9.07
2022-12-16T21:14:13.223Z,9.73
2022-12-16T21:19:16.834Z,9.15
2022-12-16T21:24:20.436Z,8.88
2022-12-16T21:29:24.425Z,9.48
2022-12-16T21:34:28.230Z,8.80
2022-12-16T21:39:33.396Z,9.38
2022-12-16T21:44:36.927Z,9.02
2022-12-16T21:49:42.106Z,9.27
2022-12-16T21:54:47.046Z,8.43
2022-12-16T21:59:50.702Z,9.73
2022-12-16T22:04:56.761Z,9.68
2022-12-16T22:10:00.439Z,9.45
2022-12-16T22:15:04.565Z,9.23
2022-12-16T22:20:09.452Z,9.35
2022-12-16T22:25:14.608Z,9.85
2022-12-16T22:30:18.246Z,10.20
2022-12-16T22:35:21.853Z,9.68
2022-12-16T22:40:25.409Z,10.10
2022-12-16T22:45:28.901Z,9.88
2022-12-16T22:50:32.716Z,11.45
2022-12-16T22:55:36.169Z,11.27
2022-12-16T23:00:40.706Z,10.38
2022-12-16T23:05:44.631Z,10.27
2022-12-16T23:10:55.198Z,11.02
2022-12-16T23:15:59.955Z,11.70
2022-12-16T23:21:03.327Z,10.52
2022-12-16T23:26:06.684Z,11.65
2022-12-16T23:31:10.436Z,10.60
2022-12-16T23:36:13.914Z,11.07
2022-12-16T23:41:17.512Z,10.57
2022-12-16T23:46:20.939Z,11.02
2022-12-16T23:51:24.490Z,12.70
2022-12-16T23:56:28.807Z,12.18
